createdAt,value
2017-08-25T00:03:10.574Z,4.80
2017-08-25T00:07:57.216Z,3.40
2017-08-25T00:12:43.842Z,5.00
2017-08-25T00:17:30.533Z,4.17
2017-08-25T00:22:17.550Z,3.77
2017-08-25T00:27:04.207Z,4.50
2017-08-25T00:31:50.915Z,5.37
2017-08-25T00:36:37.601Z,4.80
2017-08-25T00:41:24.647Z,5.33
2017-08-25T00:46:11.344Z,3.90
2017-08-25T00:50:58.059Z,5.30
2017-08-25T00:55:44.738Z,4.20
2017-08-25T01:00:31.495Z,4.50
2017-08-25T01:05:18.219Z,4.33
2017-08-25T01:10:05.279Z,3.53
2017-08-25T01:14:51.914Z,3.73
2017-08-25T01:19:38.563Z,6.20
2017-08-25T01:24:25.206Z,10.30
2017-08-25T01:29:11.871Z,4.50
2017-08-25T01:33:58.780Z,6.20
2017-08-25T01:38:45.401Z,6.03
2017-08-25T01:43:32.050Z,6.50
2017-08-25T01:48:19.456Z,6.43
2017-08-25T01:53:06.510Z,8.80
2017-08-25T01:57:53.292Z,7.97
2017-08-25T02:02:40.170Z,6.27
2017-08-25T02:07:26.806Z,7.63
2017-08-25T02:12:13.444Z,9.10
2017-08-25T02:17:00.101Z,9.80
2017-08-25T02:21:53.770Z,10.47
2017-08-25T02:26:40.443Z,7.13
2017-08-25T02:31:27.372Z,7.83
2017-08-25T02:36:14.000Z,9.53
2017-08-25T02:41:00.638Z,8.00
2017-08-25T02:45:47.321Z,6.70
2017-08-25T02:50:34.348Z,7.93
2017-08-25T02:55:20.975Z,6.87
2017-08-25T03:00:07.753Z,9.10
2017-08-25T03:04:54.547Z,8.07
2017-08-25T03:09:41.314Z,6.60
2017-08-25T03:14:28.389Z,11.37
2017-08-25T03:19:15.310Z,6.23
2017-08-25T03:24:01.914Z,7.53
2017-08-25T03:28:48.539Z,7.43
2017-08-25T03:33:35.218Z,8.47
2017-08-25T03:38:21.870Z,7.80
2017-08-25T03:43:08.804Z,8.13
2017-08-25T03:47:55.483Z,9.83
2017-08-25T03:52:42.150Z,14.73
2017-08-25T03:57:28.808Z,10.57
2017-08-25T04:02:15.444Z,12.27
2017-08-25T04:07:02.196Z,8.83
2017-08-25T04:11:48.828Z,8.57
2017-08-25T04:16:35.788Z,10.87
2017-08-25T04:21:22.405Z,13.37
2017-08-25T04:26:09.073Z,11.83
2017-08-25T04:30:55.689Z,13.93
2017-08-25T04:35:42.336Z,11.30
2017-08-25T04:40:29.027Z,13.47
2017-08-25T04:45:15.695Z,11.43
2017-08-25T04:50:02.396Z,14.80
2017-08-25T04:54:49.036Z,16.67
2017-08-25T04:59:35.855Z,11.20
2017-08-25T05:04:22.582Z,9.83
2017-08-25T05:09:09.359Z,16.23
2017-08-25T05:13:56.084Z,12.03
2017-08-25T05:18:42.769Z,14.87
2017-08-25T05:23:29.415Z,12.90
2017-08-25T05:28:16.353Z,14.27
2017-08-25T05:33:03.174Z,19.07
2017-08-25T05:37:49.807Z,15.07
2017-08-25T05:42:36.454Z,14.50
2017-08-25T05:47:23.092Z,16.30
2017-08-25T05:52:09.721Z,21.40
2017-08-25T05:56:56.393Z,28.07
2017-08-25T06:01:43.519Z,13.73
2017-08-25T06:06:30.145Z,14.27
2017-08-25T06:11:16.806Z,16.10
2017-08-25T06:16:03.413Z,14.50
2017-08-25T06:20:50.067Z,14.40
2017-08-25T06:25:36.713Z,20.97
2017-08-25T06:30:23.738Z,13.03
2017-08-25T06:35:10.363Z,17.43
2017-08-25T06:39:57.065Z,20.33
2017-08-25T06:44:43.833Z,15.90
2017-08-25T06:49:30.637Z,8.00
2017-08-25T06:54:17.269Z,12.07
2017-08-25T06:59:03.932Z,10.67
2017-08-25T07:03:50.925Z,10.50
2017-08-25T07:08:37.609Z,23.10
2017-08-25T07:13:24.303Z,6.80
2017-08-25T07:18:11.012Z,8.40
2017-08-25T07:22:57.702Z,7.03
2017-08-25T07:27:44.325Z,6.07
2017-08-25T07:32:30.994Z,7.60
2017-08-25T07:37:17.849Z,6.63
2017-08-25T07:42:04.481Z,5.80
2017-08-25T07:46:51.153Z,10.83
2017-08-25T07:51:37.773Z,5.43
2017-08-25T07:56:24.524Z,4.27
2017-08-25T08:01:11.192Z,10.20
2017-08-25T08:05:58.619Z,10.73
2017-08-25T08:10:45.302Z,11.60
2017-08-25T08:15:32.022Z,9.60
2017-08-25T08:20:18.742Z,8.80
2017-08-25T08:25:05.471Z,5.40
2017-08-25T08:29:52.166Z,6.60
2017-08-25T08:34:38.818Z,11.60
2017-08-25T08:39:25.614Z,4.43
2017-08-25T08:44:12.629Z,3.43
2017-08-25T08:48:59.344Z,3.80
2017-08-25T08:53:46.005Z,8.80
2017-08-25T08:58:32.636Z,3.40
2017-08-25T09:03:19.276Z,4.63
2017-08-25T09:08:06.205Z,5.73
2017-08-25T09:12:52.886Z,5.07
2017-08-25T09:17:39.572Z,4.63
2017-08-25T09:22:26.425Z,6.07
2017-08-25T09:27:13.077Z,8.13
2017-08-25T09:31:59.748Z,5.60
2017-08-25T09:36:46.381Z,3.97
2017-08-25T09:41:33.360Z,7.63
2017-08-25T09:46:20.016Z,4.80
2017-08-25T09:51:06.723Z,5.80
2017-08-25T09:55:53.611Z,7.40
2017-08-25T10:00:40.289Z,5.07
2017-08-25T10:05:27.037Z,3.00
2017-08-25T10:10:13.772Z,4.07
2017-08-25T10:15:00.439Z,6.30
2017-08-25T10:19:47.306Z,3.37
2017-08-25T10:24:34.109Z,3.50
2017-08-25T10:29:20.776Z,5.10
2017-08-25T10:39:54.860Z,3.07
2017-08-25T10:44:47.379Z,3.47
2017-08-25T10:49:34.132Z,2.77
2017-08-25T10:54:21.177Z,2.80
2017-08-25T10:59:07.847Z,3.70
2017-08-25T11:03:54.530Z,6.00
2017-08-25T11:08:41.297Z,3.33
2017-08-25T11:13:28.012Z,6.70
2017-08-25T11:18:14.759Z,4.30
2017-08-25T11:23:01.500Z,3.90
2017-08-25T11:27:48.534Z,5.87
2017-08-25T11:32:35.206Z,11.00
2017-08-25T11:37:21.891Z,14.13
2017-08-25T11:42:08.607Z,3.90
2017-08-25T11:46:55.347Z,6.07
2017-08-25T11:51:41.993Z,11.67
2017-08-25T11:56:28.962Z,4.67
2017-08-25T12:01:15.668Z,5.93
2017-08-25T12:06:02.335Z,4.60
2017-08-25T12:10:48.976Z,5.03
2017-08-25T12:15:35.689Z,5.17
2017-08-25T12:20:22.403Z,8.93
2017-08-25T12:25:09.994Z,5.70
2017-08-25T12:29:56.630Z,5.30
2017-08-25T12:34:43.571Z,4.80
2017-08-25T12:39:30.265Z,3.70
2017-08-25T12:44:17.095Z,3.47
2017-08-25T12:49:03.738Z,3.60
2017-08-25T12:53:50.372Z,3.77
2017-08-25T12:58:37.367Z,6.03
2017-08-25T13:03:24.017Z,6.57
2017-08-25T13:08:10.667Z,3.70
2017-08-25T13:12:57.288Z,5.87
2017-08-25T13:17:43.933Z,4.90
2017-08-25T13:22:30.571Z,3.83
2017-08-25T13:27:17.309Z,5.30
2017-08-25T13:32:04.113Z,4.93
2017-08-25T13:36:51.071Z,4.27
2017-08-25T13:41:37.724Z,3.73
2017-08-25T13:46:24.392Z,5.60
2017-08-25T13:51:11.321Z,3.40
2017-08-25T13:55:57.976Z,3.77
2017-08-25T14:00:44.803Z,5.27
2017-08-25T14:05:31.428Z,3.87
2017-08-25T14:10:18.417Z,4.17
2017-08-25T14:15:05.095Z,4.53
2017-08-25T14:19:51.721Z,4.47
2017-08-25T14:24:38.357Z,4.43
2017-08-25T14:29:25.005Z,5.60
2017-08-25T14:34:12.017Z,6.07
2017-08-25T14:38:59.151Z,10.37
2017-08-25T14:43:45.908Z,8.03
2017-08-25T14:48:32.608Z,8.37
2017-08-25T14:53:19.252Z,9.80
2017-08-25T14:58:05.889Z,5.93
2017-08-25T15:02:52.565Z,6.83
2017-08-25T15:07:39.599Z,7.50
2017-08-25T15:12:26.194Z,5.70
2017-08-25T15:17:12.826Z,4.20
2017-08-25T15:21:59.457Z,4.13
2017-08-25T15:26:46.094Z,4.40
2017-08-25T15:31:32.758Z,4.00
2017-08-25T15:36:19.437Z,7.13
2017-08-25T15:41:06.058Z,7.33
2017-08-25T15:45:52.701Z,4.37
2017-08-25T15:50:39.368Z,6.47
2017-08-25T15:55:26.028Z,3.80
2017-08-25T16:00:12.661Z,4.60
2017-08-25T16:04:59.274Z,9.73
2017-08-25T16:09:45.951Z,4.87
2017-08-25T16:14:32.921Z,6.40
2017-08-25T16:19:19.524Z,6.60
2017-08-25T16:24:06.145Z,8.27
2017-08-25T16:28:52.834Z,4.63
2017-08-25T16:33:39.463Z,5.20
2017-08-25T16:38:26.111Z,4.10
2017-08-25T16:43:12.807Z,8.67
2017-08-25T16:47:59.416Z,5.93
2017-08-25T16:52:46.296Z,5.57
2017-08-25T16:57:32.923Z,7.00
2017-08-25T17:02:19.535Z,8.77
2017-08-25T17:07:06.218Z,5.10
2017-08-25T17:11:52.872Z,5.57
2017-08-25T17:16:39.537Z,5.93
2017-08-25T17:21:26.586Z,8.27
2017-08-25T17:26:13.353Z,7.20
2017-08-25T17:31:00.161Z,8.20
2017-08-25T17:35:46.903Z,5.43
2017-08-25T17:40:33.682Z,11.00
2017-08-25T17:45:20.769Z,11.30
2017-08-25T17:50:07.433Z,6.67
2017-08-25T17:54:54.135Z,7.40
2017-08-25T17:59:40.921Z,8.87
2017-08-25T18:04:27.566Z,8.97
2017-08-25T18:09:14.220Z,5.77
2017-08-25T18:14:00.838Z,5.77
2017-08-25T18:18:48.637Z,6.60
2017-08-25T18:23:35.407Z,7.53
2017-08-25T18:28:22.167Z,9.63
2017-08-25T18:33:08.820Z,8.83
2017-08-25T18:37:55.562Z,9.37
2017-08-25T18:42:42.231Z,6.40
2017-08-25T18:47:28.865Z,6.63
2017-08-25T18:52:15.505Z,6.97
2017-08-25T18:57:02.124Z,9.73
2017-08-25T19:01:48.783Z,10.37
2017-08-25T19:06:35.457Z,11.10
2017-08-25T19:11:22.130Z,8.63
2017-08-25T19:16:08.837Z,10.30
2017-08-25T19:20:55.778Z,8.37
2017-08-25T19:25:42.430Z,8.60
2017-08-25T19:30:29.177Z,12.83
2017-08-25T19:35:15.875Z,10.50
2017-08-25T19:40:02.614Z,10.23
2017-08-25T19:44:49.381Z,11.03
2017-08-25T19:49:36.328Z,12.30
2017-08-25T19:54:23.003Z,10.50
2017-08-25T19:59:09.710Z,13.27
2017-08-25T20:03:56.495Z,11.20
2017-08-25T20:08:43.170Z,12.50
2017-08-25T20:13:30.047Z,12.20
2017-08-25T20:18:16.703Z,11.63
2017-08-25T20:23:03.393Z,18.13
2017-08-25T20:27:51.115Z,9.33
2017-08-25T20:32:37.778Z,11.33
2017-08-25T20:37:24.446Z,11.00
2017-08-25T20:42:11.178Z,11.53
2017-08-25T20:46:57.945Z,10.20
2017-08-25T20:51:44.636Z,11.63
2017-08-25T20:56:31.378Z,12.50
2017-08-25T21:01:18.458Z,12.63
2017-08-25T21:06:05.431Z,10.47
2017-08-25T21:10:52.110Z,12.87
2017-08-25T21:15:38.761Z,14.70
2017-08-25T21:20:25.421Z,10.37
2017-08-25T21:25:12.121Z,17.03
2017-08-25T21:29:58.816Z,10.07
2017-08-25T21:34:45.859Z,12.80
2017-08-25T21:39:32.488Z,13.47
2017-08-25T21:44:19.187Z,10.00
2017-08-25T21:49:05.874Z,14.13
2017-08-25T21:53:52.542Z,16.93
2017-08-25T21:58:39.223Z,9.80
2017-08-25T22:03:25.890Z,13.17
2017-08-25T22:08:12.898Z,10.03
2017-08-25T22:12:59.658Z,18.03
2017-08-25T22:17:46.375Z,13.07
2017-08-25T22:22:33.059Z,11.70
2017-08-25T22:27:19.752Z,11.30
2017-08-25T22:32:06.404Z,13.73
2017-08-25T22:36:53.440Z,12.50
2017-08-25T22:41:40.243Z,12.90
2017-08-25T22:46:26.918Z,11.20
2017-08-25T22:51:13.630Z,12.80
2017-08-25T22:56:00.270Z,15.43
2017-08-25T23:00:46.907Z,10.27
2017-08-25T23:05:33.556Z,10.43
2017-08-25T23:10:20.259Z,11.97
2017-08-25T23:15:06.934Z,9.97
2017-08-25T23:19:53.602Z,14.33
2017-08-25T23:24:40.258Z,13.87
2017-08-25T23:29:26.938Z,17.63
2017-08-25T23:34:13.904Z,13.67
2017-08-25T23:39:00.554Z,13.27
2017-08-25T23:43:47.261Z,13.87
2017-08-25T23:48:33.936Z,14.93
2017-08-25T23:53:20.569Z,15.57
2017-08-25T23:58:07.215Z,18.10
